Time;durP1;ratioP1;P1;durP2;ratioP2;P2;SDS_P1;SDS_P2;PMS_P1;PMS_P2;Temp;Humidity;BMP_temperature;BMP_pressure;BME280_temperature;BME280_humidity;BME280_pressure;Samples;Min_cycle;Max_cycle;Signal;HPM_P1;HPM_P2
2021/08/12 00:00:10;;;;;;;22.03;19.73;;;;;;;16.17;100.00;99500.81;2096365;28;20249;-75
2021/08/12 00:01:11;;;;;;;20.97;19.03;;;;;;;16.13;100.00;99503.34;2096800;28;20526;-75
2021/08/12 00:02:12;;;;;;;20.97;18.93;;;;;;;16.09;100.00;99499.72;2096194;28;20460;-75
2021/08/12 00:03:13;;;;;;;21.97;20.07;;;;;;;16.08;100.00;99503.53;2096177;28;20502;-75
2021/08/12 00:04:18;;;;;;;21.83;20.03;;;;;;;16.05;100.00;99510.31;2096357;28;20245;-76
2021/08/12 00:05:19;;;;;;;21.90;20.30;;;;;;;16.01;100.00;99504.00;2096183;28;20819;-75
2021/08/12 00:06:20;;;;;;;22.92;20.83;;;;;;;15.98;100.00;99509.22;2096254;28;20930;-75
2021/08/12 00:07:21;;;;;;;24.27;21.97;;;;;;;15.93;100.00;99510.22;2097087;28;20230;-75
2021/08/12 00:08:22;;;;;;;23.40;21.20;;;;;;;15.92;100.00;99505.94;2096542;28;20236;-75
2021/08/12 00:09:24;;;;;;;23.40;21.10;;;;;;;15.92;100.00;99515.91;2097020;28;20448;-75
2021/08/12 00:10:26;;;;;;;22.77;20.57;;;;;;;15.91;100.00;99508.94;2096447;28;20305;-75
2021/08/12 00:11:27;;;;;;;22.95;21.15;;;;;;;15.94;100.00;99521.75;2096371;28;20491;-75
2021/08/12 00:12:29;;;;;;;24.23;21.97;;;;;;;15.92;100.00;99518.59;2096348;28;20230;-75
2021/08/12 00:13:30;;;;;;;22.93;20.97;;;;;;;15.91;100.00;99511.66;2087899;28;20448;-75
2021/08/12 00:14:32;;;;;;;23.20;21.20;;;;;;;15.91;100.00;99522.41;2096687;28;21015;-75
2021/08/12 00:15:33;;;;;;;23.63;21.43;;;;;;;15.92;100.00;99521.28;2096931;28;20241;-75
2021/08/12 00:16:34;;;;;;;23.60;20.77;;;;;;;15.93;100.00;99522.88;2096958;28;20535;-75
2021/08/12 00:17:35;;;;;;;23.17;20.90;;;;;;;15.92;100.00;99518.59;2097186;28;20444;-76
2021/08/12 00:18:36;;;;;;;23.27;21.07;;;;;;;15.90;100.00;99523.50;2096548;28;20259;-75
2021/08/12 00:19:38;;;;;;;23.30;21.23;;;;;;;15.85;100.00;99521.78;2087401;28;21002;-74
2021/08/12 00:20:38;;;;;;;22.73;20.63;;;;;;;15.82;100.00;99517.03;2096238;28;20328;-75
2021/08/12 00:21:40;;;;;;;23.30;21.20;;;;;;;15.79;100.00;99523.03;2096019;28;20448;-75
2021/08/12 00:22:41;;;;;;;22.23;20.03;;;;;;;15.76;100.00;99526.38;2081799;28;20318;-76
2021/08/12 00:23:42;;;;;;;22.47;20.17;;;;;;;15.73;100.00;99524.34;2096508;28;20958;-75
2021/08/12 00:24:43;;;;;;;22.60;20.60;;;;;;;15.69;100.00;99532.22;2089599;28;20306;-75
2021/08/12 00:25:46;;;;;;;23.17;21.00;;;;;;;15.68;100.00;99527.19;2098254;28;20954;-75
2021/08/12 00:26:48;;;;;;;23.48;21.48;;;;;;;15.66;100.00;99535.56;2098656;28;20278;-75
2021/08/12 00:27:49;;;;;;;27.00;21.03;;;;;;;15.63;100.00;99535.41;2097928;28;20664;-75
2021/08/12 00:28:50;;;;;;;22.80;20.75;;;;;;;15.60;100.00;99526.03;2097870;28;20492;-75
2021/08/12 00:29:51;;;;;;;23.10;20.97;;;;;;;15.60;100.00;99536.00;2098601;28;20238;-75
2021/08/12 00:30:52;;;;;;;23.15;20.75;;;;;;;15.58;100.00;99530.97;2095551;28;20225;-75
2021/08/12 00:31:54;;;;;;;22.07;19.97;;;;;;;15.57;100.00;99534.75;2097930;28;20740;-75
2021/08/12 00:32:54;;;;;;;22.63;20.67;;;;;;;15.57;100.00;99532.06;2097977;28;20222;-74
2021/08/12 00:33:56;;;;;;;22.43;20.37;;;;;;;15.55;100.00;99537.78;2089580;28;20453;-75
2021/08/12 00:34:56;;;;;;;22.33;20.20;;;;;;;15.55;100.00;99536.97;2089588;28;20259;-75
2021/08/12 00:35:58;;;;;;;22.47;20.30;;;;;;;15.55;100.00;99536.97;2097895;28;20230;-75
2021/08/12 00:36:58;;;;;;;22.40;20.48;;;;;;;15.51;100.00;99533.31;2098509;28;20221;-75
2021/08/12 00:38:00;;;;;;;24.10;20.13;;;;;;;15.51;100.00;99536.00;2097549;28;20225;-75
2021/08/12 00:39:01;;;;;;;21.63;19.58;;;;;;;15.50;100.00;99537.13;2089523;28;20317;-75
2021/08/12 00:40:03;;;;;;;22.47;20.30;;;;;;;15.47;100.00;99532.38;2097777;28;20218;-75
2021/08/12 00:41:07;;;;;;;22.27;20.00;;;;;;;15.45;100.00;99534.56;2097835;28;20237;-76
2021/08/12 00:42:09;;;;;;;22.17;20.42;;;;;;;15.44;100.00;99538.38;2089457;28;20261;-75
2021/08/12 00:43:12;;;;;;;20.90;19.10;;;;;;;15.60;100.00;99542.19;2089263;28;20222;-75
2021/08/12 00:44:12;;;;;;;21.63;19.70;;;;;;;15.77;100.00;99541.41;2089590;28;20720;-76
2021/08/12 00:45:15;;;;;;;22.50;20.52;;;;;;;15.86;100.00;99534.13;2089373;28;20635;-75
2021/08/12 00:46:15;;;;;;;22.65;20.40;;;;;;;15.89;100.00;99536.16;2089515;28;20221;-75
2021/08/12 00:47:17;;;;;;;22.40;20.50;;;;;;;15.92;100.00;99537.44;2089267;28;20677;-75
2021/08/12 00:48:17;;;;;;;22.58;20.23;;;;;;;15.92;100.00;99534.75;2089292;28;20230;-75
2021/08/12 00:49:19;;;;;;;22.17;20.10;;;;;;;15.87;100.00;99529.53;2097999;28;20248;-75
2021/08/12 00:50:25;;;;;;;23.25;21.15;;;;;;;15.86;100.00;99534.13;2095744;28;20226;-75
2021/08/12 00:51:27;;;;;;;22.43;20.37;;;;;;;15.76;100.00;99534.44;2097749;28;20229;-76
2021/08/12 00:52:31;;;;;;;22.48;20.45;;;;;;;15.67;100.00;99531.78;2097562;28;20451;-75
2021/08/12 00:53:32;;;;;;;24.00;21.57;;;;;;;15.60;100.00;99536.81;2097562;28;20711;-76
2021/08/12 00:54:35;;;;;;;23.40;21.20;;;;;;;15.52;100.00;99534.91;2089691;28;20884;-76
2021/08/12 00:55:36;;;;;;;23.98;21.50;;;;;;;15.44;100.00;99531.09;2081330;28;20494;-76
2021/08/12 00:56:39;;;;;;;23.13;20.93;;;;;;;15.38;100.00;99542.34;2088959;28;20716;-75
2021/08/12 00:57:40;;;;;;;23.10;21.08;;;;;;;15.33;100.00;99537.13;2097533;28;20815;-76
2021/08/12 00:58:42;;;;;;;23.50;21.47;;;;;;;15.31;100.00;99536.66;2097311;28;20230;-75
2021/08/12 00:59:42;;;;;;;23.33;21.02;;;;;;;15.27;100.00;99533.78;2097734;28;20218;-76
2021/08/12 01:00:44;;;;;;;24.20;20.73;;;;;;;15.23;100.00;99533.63;2097559;28;20225;-76
2021/08/12 01:01:45;;;;;;;22.83;20.55;;;;;;;15.22;100.00;99532.06;2089233;28;20641;-76
2021/08/12 01:02:47;;;;;;;23.83;21.30;;;;;;;15.19;100.00;99532.66;2089431;28;20288;-76
2021/08/12 01:03:49;;;;;;;23.33;21.40;;;;;;;15.15;100.00;99537.09;2089563;28;20223;-76
2021/08/12 01:04:52;;;;;;;23.67;21.57;;;;;;;15.13;100.00;99542.00;2089338;28;20280;-76
2021/08/12 01:05:54;;;;;;;23.55;21.27;;;;;;;15.10;100.00;99533.75;2089060;28;20316;-76
2021/08/12 01:07:01;;;;;;;23.35;20.98;;;;;;;15.08;100.00;99536.75;2097634;28;20230;-75
2021/08/12 01:08:06;;;;;;;25.15;22.60;;;;;;;15.09;100.00;99532.97;2097435;28;20229;-76
2021/08/12 01:09:15;;;;;;;23.73;21.45;;;;;;;15.06;100.00;99538.19;2097268;28;20590;-74
2021/08/12 01:10:20;;;;;;;27.10;23.00;;;;;;;15.07;100.00;99547.84;2097707;28;20229;-76
2021/08/12 01:11:26;;;;;;;24.10;21.75;;;;;;;15.07;100.00;99545.94;2095005;28;20230;-72
2021/08/12 01:12:33;;;;;;;24.83;22.55;;;;;;;15.05;100.00;99547.38;2097531;28;20230;-75
2021/08/12 01:13:48;;;;;;;25.20;22.73;;;;;;;15.05;100.00;99550.06;2089976;28;20226;-73
2021/08/12 01:14:57;;;;;;;24.27;21.88;;;;;;;15.01;100.00;99539.13;2097405;28;20301;-76
2021/08/12 01:16:00;;;;;;;24.05;21.75;;;;;;;15.02;100.00;99542.59;2096878;28;20277;-77
2021/08/12 01:17:05;;;;;;;24.50;22.20;;;;;;;15.02;100.00;99542.59;2089504;28;20288;-76
2021/08/12 01:18:12;;;;;;;24.23;21.83;;;;;;;14.98;100.00;99545.91;2083702;28;20224;-76
2021/08/12 01:20:02;;;;;;;23.65;21.20;;;;;;;15.02;100.00;99540.69;2097417;28;20218;-76
2021/08/12 01:21:13;;;;;;;25.52;22.17;;;;;;;14.97;100.00;99546.25;2063628;28;20227;-76
2021/08/12 01:22:17;;;;;;;25.55;23.08;;;;;;;14.98;100.00;99543.22;2055984;28;20300;-76
2021/08/12 01:23:21;;;;;;;24.45;22.15;;;;;;;14.94;100.00;99542.28;2058270;28;20305;-76
2021/08/12 01:24:25;;;;;;;24.38;21.85;;;;;;;14.91;100.00;99542.09;2088901;28;20223;-74
2021/08/12 01:25:29;;;;;;;26.58;21.48;;;;;;;14.89;100.00;99549.69;2082552;28;20647;-76
2021/08/12 01:26:33;;;;;;;25.17;22.70;;;;;;;14.88;100.00;99548.13;2096453;28;20229;-76
2021/08/12 01:27:36;;;;;;;24.08;21.70;;;;;;;14.87;100.00;99546.53;2098033;28;20249;-76
2021/08/12 01:28:42;;;;;;;23.85;21.52;;;;;;;14.85;100.00;99548.72;2097964;28;20225;-74
2021/08/12 01:29:47;;;;;;;25.30;22.05;;;;;;;14.84;100.00;99547.94;2097385;28;20226;-76
2021/08/12 01:31:02;;;;;;;24.67;22.40;;;;;;;14.83;100.00;99546.34;2089915;28;20246;-76
2021/08/12 01:32:08;;;;;;;24.63;22.20;;;;;;;14.81;100.00;99543.19;2088830;28;20269;-76
2021/08/12 01:33:13;;;;;;;25.40;21.55;;;;;;;14.83;100.00;99545.56;2080733;28;20223;-75
2021/08/12 01:34:21;;;;;;;24.27;21.77;;;;;;;14.80;100.00;99548.88;2088527;28;20600;-76
2021/08/12 01:35:25;;;;;;;29.23;21.23;;;;;;;14.78;100.00;99551.09;2083289;28;20223;-75
2021/08/12 01:36:27;;;;;;;23.48;21.13;;;;;;;14.78;100.00;99548.41;2097456;28;20234;-76
2021/08/12 01:37:32;;;;;;;23.88;21.55;;;;;;;14.73;100.00;99545.84;2097251;28;20214;-76
2021/08/12 01:38:34;;;;;;;23.67;21.40;;;;;;;14.72;100.00;99555.81;2097139;28;20234;-75
2021/08/12 01:39:36;;;;;;;25.52;22.42;;;;;;;14.70;100.00;99548.06;2097483;28;20225;-76
2021/08/12 01:40:39;;;;;;;25.05;22.48;;;;;;;14.68;100.00;99555.66;2096805;28;20248;-75
2021/08/12 01:41:41;;;;;;;23.60;21.15;;;;;;;14.70;100.00;99550.75;2097408;28;20575;-75
2021/08/12 01:42:44;;;;;;;21.95;20.05;;;;;;;14.76;100.00;99555.97;2089143;28;20705;-76
2021/08/12 01:43:47;;;;;;;22.60;20.40;;;;;;;14.83;100.00;99545.56;2089378;28;20222;-76
2021/08/12 01:44:50;;;;;;;23.37;21.13;;;;;;;14.85;100.00;99551.41;2089261;28;20230;-76
2021/08/12 01:45:54;;;;;;;24.23;21.73;;;;;;;14.77;100.00;99546.78;2088974;28;20233;-73
2021/08/12 01:46:55;;;;;;;23.63;21.33;;;;;;;14.72;100.00;99546.94;2097490;28;20610;-76
2021/08/12 01:47:56;;;;;;;23.05;20.77;;;;;;;14.69;100.00;99541.09;2097070;28;20253;-76
2021/08/12 01:49:02;;;;;;;24.50;22.10;;;;;;;14.61;100.00;99544.56;2097160;28;20214;-75
2021/08/12 01:50:04;;;;;;;25.55;22.48;;;;;;;14.58;100.00;99547.84;2089774;28;20226;-76
2021/08/12 01:51:08;;;;;;;23.38;21.25;;;;;;;14.54;100.00;99554.94;2086977;28;20223;-76
2021/08/12 01:52:09;;;;;;;24.73;22.17;;;;;;;14.50;100.00;99545.91;2088785;28;20276;-76
2021/08/12 01:53:12;;;;;;;23.97;21.63;;;;;;;14.51;100.00;99544.00;2097230;28;20275;-76
2021/08/12 01:54:13;;;;;;;26.23;21.95;;;;;;;14.50;100.00;99547.81;2097185;28;20697;-75
2021/08/12 01:55:17;;;;;;;25.65;23.02;;;;;;;14.50;100.00;99547.81;2089301;28;20272;-76
2021/08/12 01:56:21;;;;;;;24.90;22.25;;;;;;;14.49;100.00;99549.69;2089378;28;20566;-76
2021/08/12 01:57:23;;;;;;;24.87;22.37;;;;;;;14.48;100.00;99542.75;2088602;28;20304;-73
2021/08/12 01:58:26;;;;;;;27.45;22.50;;;;;;;14.47;100.00;99553.81;2089070;28;20506;-76
2021/08/12 01:59:26;;;;;;;23.15;21.15;;;;;;;14.43;100.00;99549.03;2089158;28;20230;-75
2021/08/12 02:00:30;;;;;;;23.60;21.40;;;;;;;14.40;100.00;99548.84;2097290;28;20224;-76
2021/08/12 02:01:37;;;;;;;23.58;21.38;;;;;;;14.35;100.00;99557.03;2096544;28;20226;-75
2021/08/12 02:02:41;;;;;;;23.92;21.40;;;;;;;14.32;100.00;99552.28;2097325;28;20222;-76
2021/08/12 02:03:46;;;;;;;24.80;22.42;;;;;;;14.28;100.00;99552.09;2097086;28;20688;-76
2021/08/12 02:04:48;;;;;;;26.05;23.23;;;;;;;14.29;100.00;99563.63;2097114;28;20789;-76
2021/08/12 02:05:51;;;;;;;25.07;22.40;;;;;;;14.29;100.00;99569.78;2089038;28;20629;-75
2021/08/12 02:06:55;;;;;;;26.38;23.58;;;;;;;14.31;100.00;99572.16;2096701;28;20226;-75
2021/08/12 02:07:58;;;;;;;24.83;22.42;;;;;;;14.28;100.00;99562.06;2097274;28;20230;-75
2021/08/12 02:08:59;;;;;;;24.45;21.88;;;;;;;14.26;100.00;99569.63;2097038;28;20218;-76
2021/08/12 02:10:01;;;;;;;24.20;21.90;;;;;;;14.25;100.00;99568.84;2088945;28;20219;-75
2021/08/12 02:11:02;;;;;;;24.98;22.63;;;;;;;14.22;100.00;99560.59;2088880;28;20297;-76
2021/08/12 02:12:08;;;;;;;24.20;22.00;;;;;;;14.22;100.00;99566.75;2080822;28;20215;-76
2021/08/12 02:13:09;;;;;;;23.20;21.10;;;;;;;14.22;100.00;99561.38;2088791;28;20227;-76
2021/08/12 02:14:11;;;;;;;24.45;21.98;;;;;;;14.21;100.00;99564.38;2097008;28;20283;-76
2021/08/12 02:15:13;;;;;;;23.30;21.02;;;;;;;14.20;100.00;99566.28;2096988;28;20226;-76
2021/08/12 02:16:14;;;;;;;31.83;23.20;;;;;;;14.20;100.00;99562.78;2089104;28;20289;-75
2021/08/12 02:17:16;;;;;;;29.60;22.48;;;;;;;14.19;100.00;99569.28;2088819;28;20219;-75
2021/08/12 02:18:17;;;;;;;24.77;22.27;;;;;;;14.17;100.00;99563.41;2081639;28;20227;-76
2021/08/12 02:19:19;;;;;;;24.23;21.63;;;;;;;14.18;100.00;99563.13;2096710;28;20275;-76
2021/08/12 02:20:21;;;;;;;24.03;21.50;;;;;;;14.18;100.00;99573.06;2080686;28;20223;-76
2021/08/12 02:21:26;;;;;;;23.63;21.33;;;;;;;14.20;100.00;99573.53;2080217;28;20250;-75
2021/08/12 02:22:31;;;;;;;24.27;21.17;;;;;;;14.20;100.00;99565.47;2085581;28;20241;-75
2021/08/12 02:23:34;;;;;;;23.05;20.90;;;;;;;14.17;100.00;99561.53;2097125;28;20225;-76
2021/08/12 02:24:38;;;;;;;23.55;21.13;;;;;;;14.14;100.00;99565.59;2088733;28;20696;-76
2021/08/12 02:25:50;;;;;;;23.17;20.98;;;;;;;14.14;100.00;99562.91;2096468;28;20597;-75
2021/08/12 02:26:57;;;;;;;24.45;22.02;;;;;;;14.20;100.00;99562.78;2096974;28;20232;-76
2021/08/12 02:28:05;;;;;;;23.73;21.42;;;;;;;14.15;100.00;99559.13;2096768;28;20222;-76
2021/08/12 02:29:09;;;;;;;23.73;21.40;;;;;;;14.19;100.00;99556.63;2096936;28;20595;-76
2021/08/12 02:30:11;;;;;;;24.60;22.00;;;;;;;14.14;100.00;99554.88;2086103;28;20218;-75
2021/08/12 02:31:16;;;;;;;23.63;21.40;;;;;;;14.13;100.00;99557.84;2088765;28;20285;-76
2021/08/12 02:32:18;;;;;;;23.77;21.70;;;;;;;14.10;100.00;99558.47;2088537;28;20226;-76
2021/08/12 02:33:23;;;;;;;24.02;21.63;;;;;;;14.05;100.00;99554.03;2088597;28;20298;-76
2021/08/12 02:34:25;;;;;;;24.50;22.08;;;;;;;14.06;100.00;99558.28;2088325;28;20685;-76
2021/08/12 02:35:27;;;;;;;22.75;20.42;;;;;;;14.02;100.00;99556.53;2096775;28;20226;-76
2021/08/12 02:36:28;;;;;;;21.90;19.98;;;;;;;14.01;100.00;99549.59;2096781;28;20226;-76
2021/08/12 02:37:33;;;;;;;24.45;21.30;;;;;;;13.99;100.00;99554.47;2096677;28;20222;-76
2021/08/12 02:38:36;;;;;;;24.27;21.80;;;;;;;13.98;100.00;99555.53;2096194;28;20271;-76
2021/08/12 02:39:40;;;;;;;23.90;21.65;;;;;;;13.95;100.00;99559.66;2088444;28;20227;-75
2021/08/12 02:40:42;;;;;;;23.83;21.63;;;;;;;13.91;100.00;99558.69;2088807;28;20219;-76
2021/08/12 02:41:44;;;;;;;23.42;21.15;;;;;;;13.88;100.00;99553.13;2081846;28;20227;-76
2021/08/12 02:42:45;;;;;;;22.92;20.67;;;;;;;13.85;100.00;99554.53;2095955;28;20732;-76
2021/08/12 02:43:47;;;;;;;25.27;22.75;;;;;;;13.84;100.00;99558.31;2096861;28;20244;-76
2021/08/12 02:44:50;;;;;;;25.10;22.48;;;;;;;13.84;100.00;99559.09;2088730;28;20230;-76
2021/08/12 02:45:53;;;;;;;23.08;21.17;;;;;;;13.85;100.00;99555.31;2096211;28;20685;-76
2021/08/12 02:46:54;;;;;;;23.15;21.02;;;;;;;13.88;100.00;99564.63;2096313;28;20229;-75
2021/08/12 02:47:56;;;;;;;23.55;21.00;;;;;;;13.95;100.00;99559.66;2096952;28;20240;-75
2021/08/12 02:48:58;;;;;;;23.33;21.05;;;;;;;14.00;100.00;99564.91;2097560;28;20226;-76
2021/08/12 02:50:00;;;;;;;22.02;19.77;;;;;;;14.18;100.00;99575.75;2096872;28;20226;-76
2021/08/12 02:51:01;;;;;;;24.15;21.60;;;;;;;14.08;100.00;99571.41;2096570;28;20305;-76
2021/08/12 02:52:03;;;;;;;22.88;20.58;;;;;;;14.05;100.00;99578.16;2096658;28;20218;-76
2021/08/12 02:53:06;;;;;;;22.70;20.45;;;;;;;14.15;100.00;99569.88;2096657;28;20224;-76
2021/08/12 02:54:08;;;;;;;23.10;20.80;;;;;;;14.22;100.00;99571.31;2096357;28;20694;-75
2021/08/12 02:55:11;;;;;;;24.05;21.75;;;;;;;14.14;100.00;99573.66;2096658;28;20221;-76
2021/08/12 02:56:15;;;;;;;24.38;21.77;;;;;;;14.08;100.00;99572.22;2096693;28;20222;-76
2021/08/12 02:57:16;;;;;;;24.17;21.85;;;;;;;14.05;100.00;99574.69;2096563;28;20226;-75
2021/08/12 02:58:19;;;;;;;23.80;21.33;;;;;;;14.00;100.00;99575.63;2096858;28;20226;-76
2021/08/12 02:59:20;;;;;;;27.13;23.98;;;;;;;13.98;100.00;99575.13;2082619;28;20278;-75
2021/08/12 03:00:22;;;;;;;27.17;24.03;;;;;;;13.97;100.00;99570.06;2096776;28;20217;-76
2021/08/12 03:01:24;;;;;;;27.13;24.38;;;;;;;13.97;100.00;99578.13;2094187;28;20746;-75
2021/08/12 03:02:27;;;;;;;26.02;23.38;;;;;;;14.01;100.00;99574.53;2088464;28;20284;-76
2021/08/12 03:03:28;;;;;;;28.17;25.17;;;;;;;13.96;100.00;99571.16;2088662;28;20700;-75
2021/08/12 03:04:29;;;;;;;24.67;22.37;;;;;;;13.91;100.00;99574.78;2088286;28;20639;-75
2021/08/12 03:05:33;;;;;;;25.13;22.63;;;;;;;13.88;100.00;99574.56;2088553;28;20287;-76
2021/08/12 03:06:35;;;;;;;25.15;22.50;;;;;;;13.85;100.00;99584.03;2096417;28;20245;-76
2021/08/12 03:07:36;;;;;;;26.95;24.23;;;;;;;13.82;100.00;99574.72;2096448;28;20286;-75
2021/08/12 03:08:40;;;;;;;24.80;22.30;;;;;;;13.78;100.00;99572.94;2079811;28;20227;-75
2021/08/12 03:09:42;;;;;;;24.63;21.75;;;;;;;13.76;100.00;99575.91;2087136;28;20708;-75
2021/08/12 03:10:44;;;;;;;24.77;22.27;;;;;;;13.74;100.00;99580.81;2088526;28;20294;-76
2021/08/12 03:11:45;;;;;;;23.63;21.52;;;;;;;13.74;100.00;99578.13;2096533;28;20221;-75
2021/08/12 03:12:47;;;;;;;24.77;22.23;;;;;;;13.74;100.00;99585.38;2096461;28;20222;-75
2021/08/12 03:13:48;;;;;;;24.58;22.15;;;;;;;13.72;100.00;99588.34;2088499;28;20227;-76
2021/08/12 03:14:51;;;;;;;24.65;22.33;;;;;;;13.70;100.00;99579.03;2096542;28;20230;-75
2021/08/12 03:15:55;;;;;;;24.52;22.05;;;;;;;13.67;100.00;99582.31;2096204;28;20585;-76
2021/08/12 03:16:58;;;;;;;24.92;22.38;;;;;;;13.61;100.00;99578.16;2096400;28;20258;-75
2021/08/12 03:18:00;;;;;;;24.70;22.50;;;;;;;13.60;100.00;99579.25;2096489;28;20233;-76
2021/08/12 03:19:03;;;;;;;23.38;21.13;;;;;;;13.56;100.00;99582.56;2088281;28;20681;-76
2021/08/12 03:20:05;;;;;;;23.48;21.35;;;;;;;13.56;100.00;99579.88;2080573;28;20287;-75
2021/08/12 03:21:07;;;;;;;23.40;21.20;;;;;;;13.55;100.00;99580.97;2080120;28;20243;-76
2021/08/12 03:22:11;;;;;;;25.75;22.48;;;;;;;13.51;100.00;99577.28;2087901;28;20227;-75
2021/08/12 03:23:13;;;;;;;25.42;22.58;;;;;;;13.46;100.00;99573.94;2096481;28;20236;-75
2021/08/12 03:24:16;;;;;;;24.42;22.02;;;;;;;13.46;100.00;99580.06;2097253;28;20240;-76
2021/08/12 03:25:17;;;;;;;24.10;21.92;;;;;;;13.42;100.00;99579.09;2097372;28;20271;-76
2021/08/12 03:26:19;;;;;;;24.65;22.35;;;;;;;13.41;100.00;99576.72;2097269;28;20707;-76
2021/08/12 03:27:20;;;;;;;23.83;21.52;;;;;;;13.42;100.00;99583.69;2096680;28;20322;-76
2021/08/12 03:28:23;;;;;;;24.42;21.88;;;;;;;13.41;100.00;99584.78;2095950;28;20251;-75
2021/08/12 03:29:24;;;;;;;24.35;21.90;;;;;;;13.45;100.00;99580.38;2096554;28;20225;-75
2021/08/12 03:30:26;;;;;;;24.10;21.70;;;;;;;13.48;100.00;99585.94;2081546;28;20223;-75
2021/08/12 03:31:26;;;;;;;24.48;22.00;;;;;;;13.43;100.00;99583.38;2095130;28;22439;-75
2021/08/12 03:32:28;;;;;;;25.53;21.63;;;;;;;13.42;100.00;99584.47;2096552;28;20313;-75
2021/08/12 03:33:29;;;;;;;25.33;22.13;;;;;;;13.43;100.00;99590.63;2088082;28;20222;-76
2021/08/12 03:34:30;;;;;;;24.10;21.70;;;;;;;13.43;100.00;99590.63;2088358;28;20214;-76
2021/08/12 03:35:31;;;;;;;25.38;22.77;;;;;;;13.39;100.00;99585.06;2088267;28;20309;-76
2021/08/12 03:36:33;;;;;;;25.43;23.03;;;;;;;13.38;100.00;99591.53;2096470;28;20691;-76
2021/08/12 03:37:33;;;;;;;26.58;23.73;;;;;;;13.39;100.00;99585.06;2096416;28;20229;-75
2021/08/12 03:38:35;;;;;;;24.83;22.43;;;;;;;13.37;100.00;99597.19;2096255;28;20225;-76
2021/08/12 03:39:38;;;;;;;25.23;22.58;;;;;;;13.36;100.00;99590.22;2093904;28;20556;-74
2021/08/12 03:40:40;;;;;;;25.10;22.67;;;;;;;13.37;100.00;99597.19;2088416;28;20226;-76
2021/08/12 03:41:41;;;;;;;25.67;22.30;;;;;;;13.39;100.00;99595.81;2088080;28;20222;-75
2021/08/12 03:42:43;;;;;;;24.47;22.07;;;;;;;13.46;100.00;99592.69;2081291;28;20223;-76
2021/08/12 03:43:43;;;;;;;25.48;22.10;;;;;;;13.45;100.00;99593.78;2079806;28;20226;-76
2021/08/12 03:44:45;;;;;;;24.33;21.93;;;;;;;13.44;100.00;99597.56;2088105;28;20215;-76
2021/08/12 03:45:46;;;;;;;26.52;22.42;;;;;;;13.41;100.00;99598.19;2088126;28;20590;-76
2021/08/12 03:46:47;;;;;;;25.27;22.57;;;;;;;13.40;100.00;99599.28;2096245;28;20309;-76
2021/08/12 03:47:48;;;;;;;25.92;23.15;;;;;;;13.37;100.00;99592.59;2088038;28;20313;-76
2021/08/12 03:48:50;;;;;;;24.53;22.03;;;;;;;13.38;100.00;99598.75;2085523;28;20226;-76
2021/08/12 03:49:52;;;;;;;26.63;22.23;;;;;;;13.36;100.00;99600.94;2087945;28;20903;-76
2021/08/12 03:50:52;;;;;;;23.58;21.27;;;;;;;13.39;100.00;99601.16;2085921;28;20258;-76
2021/08/12 03:51:55;;;;;;;23.38;20.92;;;;;;;13.51;100.00;99601.41;2081777;28;20333;-75
2021/08/12 03:52:55;;;;;;;24.55;21.90;;;;;;;13.51;100.00;99600.63;2080006;28;20231;-75
2021/08/12 03:53:57;;;;;;;23.60;21.20;;;;;;;13.52;100.00;99600.31;2094890;28;20230;-76
2021/08/12 03:55:00;;;;;;;22.60;20.48;;;;;;;13.62;100.00;99603.88;2096070;28;20313;-75
2021/08/12 03:56:02;;;;;;;24.13;21.70;;;;;;;13.56;100.00;99604.00;2081016;28;20309;-76
2021/08/12 03:57:04;;;;;;;24.02;21.70;;;;;;;13.51;100.00;99604.09;2095296;28;20222;-76
2021/08/12 03:58:06;;;;;;;24.73;22.33;;;;;;;13.49;100.00;99606.28;2096151;28;20236;-76
2021/08/12 03:59:08;;;;;;;24.60;22.08;;;;;;;13.48;100.00;99610.06;2087617;28;20254;-74
2021/08/12 04:00:11;;;;;;;25.13;22.45;;;;;;;13.51;100.00;99616.72;2087885;28;20222;-75
2021/08/12 04:01:20;;;;;;;24.25;21.88;;;;;;;13.47;100.00;99611.19;2089297;28;20234;-76
2021/08/12 04:02:22;;;;;;;26.73;23.00;;;;;;;13.46;100.00;99606.09;2079853;28;20233;-76
2021/08/12 04:03:22;;;;;;;26.20;23.45;;;;;;;13.47;100.00;99613.06;2096017;28;20226;-75
2021/08/12 04:04:24;;;;;;;24.00;21.70;;;;;;;13.52;100.00;99611.03;2096223;28;20229;-75
2021/08/12 04:05:26;;;;;;;25.10;22.65;;;;;;;13.61;100.00;99613.81;2081374;28;20224;-75
2021/08/12 04:06:27;;;;;;;25.08;22.50;;;;;;;13.75;100.00;99611.88;2095286;28;20233;-75
2021/08/12 04:07:28;;;;;;;26.73;23.90;;;;;;;13.74;100.00;99612.19;2096169;28;20214;-76
2021/08/12 04:08:30;;;;;;;26.00;23.48;;;;;;;13.74;100.00;99612.19;2088144;28;20320;-76
2021/08/12 04:09:32;;;;;;;25.23;22.73;;;;;;;13.73;100.00;99610.63;2088045;28;20249;-76
2021/08/12 04:10:34;;;;;;;25.50;23.13;;;;;;;13.73;100.00;99614.09;2080290;28;20290;-76
2021/08/12 04:11:36;;;;;;;25.35;22.75;;;;;;;13.71;100.00;99612.78;2096337;28;20225;-76
2021/08/12 04:12:37;;;;;;;25.95;23.33;;;;;;;13.69;100.00;99617.66;2095612;28;20226;-76
2021/08/12 04:13:40;;;;;;;25.02;22.50;;;;;;;13.66;100.00;99610.22;2096295;28;20572;-76
2021/08/12 04:14:40;;;;;;;27.55;23.75;;;;;;;13.67;100.00;99615.28;2096509;28;20222;-76
2021/08/12 04:15:42;;;;;;;24.73;22.37;;;;;;;13.68;100.00;99616.06;2081278;28;20235;-75
2021/08/12 04:16:42;;;;;;;27.83;25.08;;;;;;;13.65;100.00;99614.00;2095149;28;20700;-76
2021/08/12 04:17:44;;;;;;;28.70;25.73;;;;;;;13.65;100.00;99616.69;2095999;28;20632;-76
2021/08/12 04:18:45;;;;;;;30.70;26.48;;;;;;;13.62;100.00;99609.25;2087491;28;20226;-76
2021/08/12 04:19:46;;;;;;;31.57;24.37;;;;;;;13.62;100.00;99611.91;2096498;28;20748;-76
2021/08/12 04:20:47;;;;;;;26.98;24.27;;;;;;;13.65;100.00;99616.69;2095787;28;20228;-76
2021/08/12 04:21:48;;;;;;;27.50;24.57;;;;;;;13.64;100.00;99613.22;2096493;28;20242;-76
2021/08/12 04:22:49;;;;;;;30.77;25.30;;;;;;;13.63;100.00;99611.59;2095675;28;20221;-75
2021/08/12 04:23:50;;;;;;;26.63;24.20;;;;;;;13.64;100.00;99607.03;2079851;28;20223;-76
2021/08/12 04:24:51;;;;;;;28.33;24.13;;;;;;;13.66;100.00;99615.59;2096190;28;20620;-76
2021/08/12 04:25:55;;;;;;;29.08;25.10;;;;;;;13.67;100.00;99614.50;2087448;28;20226;-75
2021/08/12 04:26:56;;;;;;;27.23;22.58;;;;;;;13.68;100.00;99626.81;2082010;28;20247;-76
2021/08/12 04:27:59;;;;;;;26.20;23.50;;;;;;;13.68;100.00;99616.88;2088103;28;20316;-76
2021/08/12 04:29:03;;;;;;;25.58;22.85;;;;;;;13.70;100.00;99613.88;2080486;28;20745;-76
2021/08/12 04:30:06;;;;;;;26.48;22.50;;;;;;;13.69;100.00;99615.78;2088215;28;20222;-76
2021/08/12 04:31:08;;;;;;;25.48;22.88;;;;;;;13.70;100.00;99620.03;2087756;28;20233;-76
2021/08/12 04:32:09;;;;;;;29.38;25.17;;;;;;;13.69;100.00;99618.44;2088094;28;20223;-76
2021/08/12 04:33:12;;;;;;;27.48;24.13;;;;;;;13.73;100.00;99624.81;2087839;28;20728;-75
2021/08/12 04:34:14;;;;;;;30.27;24.45;;;;;;;13.74;100.00;99622.91;2084860;28;20222;-75
2021/08/12 04:35:15;;;;;;;27.57;24.57;;;;;;;13.73;100.00;99618.66;2087980;28;20685;-76
2021/08/12 04:36:16;;;;;;;29.10;24.63;;;;;;;13.74;100.00;99620.25;2087820;28;20242;-76
2021/08/12 04:37:18;;;;;;;29.20;25.13;;;;;;;13.75;100.00;99621.81;2095391;28;20273;-76
2021/08/12 04:38:18;;;;;;;30.08;25.05;;;;;;;13.77;100.00;99627.66;2087798;28;20223;-76
2021/08/12 04:39:20;;;;;;;31.60;27.07;;;;;;;13.78;100.00;99621.22;2087774;28;20697;-75
2021/08/12 04:40:22;;;;;;;28.42;25.42;;;;;;;13.77;100.00;99619.63;2088123;28;20233;-76
2021/08/12 04:41:25;;;;;;;28.80;24.55;;;;;;;13.82;100.00;99622.22;2095804;28;20226;-75
2021/08/12 04:42:26;;;;;;;27.08;24.45;;;;;;;13.82;100.00;99624.88;2096355;28;20677;-75
2021/08/12 04:43:30;;;;;;;28.70;24.40;;;;;;;13.84;100.00;99626.16;2080994;28;20227;-75
2021/08/12 04:44:31;;;;;;;26.35;23.77;;;;;;;13.84;100.00;99625.38;2095293;28;20256;-76